sensor_id;sensor_type;location;lat;lon;timestamp;noise_LAeq;noise_LA_min;noise_LA_max;noise_LA01;noise_LA95
37163;Laerm;23057;48.554;14.454;2023-06-24T00:00:05;49.73;48.61;51.55;;
37163;Laerm;23057;48.554;14.454;2023-06-24T00:02:42;49.69;48.66;51.01;;
37163;Laerm;23057;48.554;14.454;2023-06-24T00:05:15;49.71;48.54;51.24;;
37163;Laerm;23057;48.554;14.454;2023-06-24T00:07:47;49.72;48.58;51.49;;
37163;Laerm;23057;48.554;14.454;2023-06-24T00:10:17;49.71;48.74;51.08;;
37163;Laerm;23057;48.554;14.454;2023-06-24T00:12:48;49.65;48.58;50.84;;
37163;Laerm;23057;48.554;14.454;2023-06-24T00:15:19;49.66;48.61;50.98;;
37163;Laerm;23057;48.554;14.454;2023-06-24T00:17:49;49.74;48.61;51.24;;
37163;Laerm;23057;48.554;14.454;2023-06-24T00:20:20;49.67;48.61;50.77;;
37163;Laerm;23057;48.554;14.454;2023-06-24T00:22:51;49.65;48.37;51.62;;
37163;Laerm;23057;48.554;14.454;2023-06-24T00:25:22;49.64;48.64;50.65;;
37163;Laerm;23057;48.554;14.454;2023-06-24T00:27:53;49.66;48.46;51.64;;
37163;Laerm;23057;48.554;14.454;2023-06-24T00:30:23;49.65;48.46;50.75;;
37163;Laerm;23057;48.554;14.454;2023-06-24T00:32:54;49.65;48.73;53.14;;
37163;Laerm;23057;48.554;14.454;2023-06-24T00:35:25;49.65;48.57;51.03;;
37163;Laerm;23057;48.554;14.454;2023-06-24T00:37:55;49.65;48.48;51.19;;
37163;Laerm;23057;48.554;14.454;2023-06-24T00:40:28;49.72;48.60;55.71;;
37163;Laerm;23057;48.554;14.454;2023-06-24T00:43:00;49.68;48.57;51.39;;
37163;Laerm;23057;48.554;14.454;2023-06-24T00:45:32;49.70;48.71;51.40;;
37163;Laerm;23057;48.554;14.454;2023-06-24T00:48:03;49.73;48.55;51.93;;
37163;Laerm;23057;48.554;14.454;2023-06-24T00:50:34;49.83;48.64;57.30;;
37163;Laerm;23057;48.554;14.454;2023-06-24T00:53:05;49.70;48.63;51.63;;
37163;Laerm;23057;48.554;14.454;2023-06-24T00:55:36;49.78;48.74;53.17;;
37163;Laerm;23057;48.554;14.454;2023-06-24T00:58:07;50.08;48.43;55.69;;
37163;Laerm;23057;48.554;14.454;2023-06-24T01:00:38;49.83;48.64;52.72;;
37163;Laerm;23057;48.554;14.454;2023-06-24T01:03:10;49.97;48.67;52.52;;
37163;Laerm;23057;48.554;14.454;2023-06-24T01:05:45;50.38;48.77;54.92;;
37163;Laerm;23057;48.554;14.454;2023-06-24T01:08:16;49.82;48.58;53.45;;
37163;Laerm;23057;48.554;14.454;2023-06-24T01:10:46;49.83;48.45;52.92;;
37163;Laerm;23057;48.554;14.454;2023-06-24T01:13:17;49.78;48.71;53.83;;
37163;Laerm;23057;48.554;14.454;2023-06-24T01:15:48;49.77;48.49;53.07;;
37163;Laerm;23057;48.554;14.454;2023-06-24T01:18:35;49.80;48.51;52.80;;
37163;Laerm;23057;48.554;14.454;2023-06-24T01:21:18;49.73;48.71;54.22;;
37163;Laerm;23057;48.554;14.454;2023-06-24T01:30:16;49.67;48.48;51.78;;
37163;Laerm;23057;48.554;14.454;2023-06-24T01:33:01;49.67;48.61;51.05;;
37163;Laerm;23057;48.554;14.454;2023-06-24T01:35:35;49.68;48.49;51.44;;
37163;Laerm;23057;48.554;14.454;2023-06-24T01:38:36;49.68;48.61;51.72;;
37163;Laerm;23057;48.554;14.454;2023-06-24T01:41:09;49.68;48.73;51.39;;
37163;Laerm;23057;48.554;14.454;2023-06-24T01:43:43;49.69;48.42;51.20;;
37163;Laerm;23057;48.554;14.454;2023-06-24T01:46:21;49.68;48.66;50.92;;
37163;Laerm;23057;48.554;14.454;2023-06-24T01:48:59;49.69;48.36;51.73;;
37163;Laerm;23057;48.554;14.454;2023-06-24T01:51:34;49.71;48.61;50.95;;
37163;Laerm;23057;48.554;14.454;2023-06-24T01:54:10;49.71;48.45;51.09;;
37163;Laerm;23057;48.554;14.454;2023-06-24T01:56:43;49.70;48.48;50.84;;
37163;Laerm;23057;48.554;14.454;2023-06-24T01:59:17;49.71;48.63;51.19;;
37163;Laerm;23057;48.554;14.454;2023-06-24T02:01:50;49.72;48.56;52.68;;
37163;Laerm;23057;48.554;14.454;2023-06-24T02:04:24;49.70;48.26;51.47;;
37163;Laerm;23057;48.554;14.454;2023-06-24T02:07:00;49.72;48.42;52.37;;
37163;Laerm;23057;48.554;14.454;2023-06-24T02:09:33;49.72;48.70;51.22;;
37163;Laerm;23057;48.554;14.454;2023-06-24T02:12:06;49.71;48.46;51.01;;
37163;Laerm;23057;48.554;14.454;2023-06-24T02:14:41;49.71;48.52;51.55;;
37163;Laerm;23057;48.554;14.454;2023-06-24T02:17:13;49.71;48.61;51.00;;
37163;Laerm;23057;48.554;14.454;2023-06-24T02:19:47;49.70;48.64;51.07;;
37163;Laerm;23057;48.554;14.454;2023-06-24T02:22:21;49.69;48.73;50.81;;
37163;Laerm;23057;48.554;14.454;2023-06-24T02:24:54;49.69;48.55;51.00;;
37163;Laerm;23057;48.554;14.454;2023-06-24T02:27:25;49.70;48.42;51.03;;
37163;Laerm;23057;48.554;14.454;2023-06-24T02:29:57;49.69;48.71;50.77;;
37163;Laerm;23057;48.554;14.454;2023-06-24T02:32:29;49.70;48.49;50.85;;
37163;Laerm;23057;48.554;14.454;2023-06-24T02:35:00;49.71;48.40;50.77;;
37163;Laerm;23057;48.554;14.454;2023-06-24T02:37:30;49.70;48.69;51.08;;
37163;Laerm;23057;48.554;14.454;2023-06-24T02:40:02;49.69;48.61;50.77;;
37163;Laerm;23057;48.554;14.454;2023-06-24T02:42:33;49.68;48.64;50.77;;
37163;Laerm;23057;48.554;14.454;2023-06-24T02:45:06;49.70;48.67;51.38;;
37163;Laerm;23057;48.554;14.454;2023-06-24T02:47:38;49.70;48.63;50.91;;
37163;Laerm;23057;48.554;14.454;2023-06-24T02:50:10;49.70;48.69;50.80;;
37163;Laerm;23057;48.554;14.454;2023-06-24T02:52:41;49.70;48.64;50.71;;
37163;Laerm;23057;48.554;14.454;2023-06-24T02:55:14;49.74;48.58;50.89;;
37163;Laerm;23057;48.554;14.454;2023-06-24T02:57:46;49.73;48.60;51.17;;
37163;Laerm;23057;48.554;14.454;2023-06-24T03:00:18;49.75;48.71;50.92;;
37163;Laerm;23057;48.554;14.454;2023-06-24T03:02:49;49.71;48.63;51.04;;
37163;Laerm;23057;48.554;14.454;2023-06-24T03:05:20;49.69;48.58;50.73;;
37163;Laerm;23057;48.554;14.454;2023-06-24T03:07:57;49.67;48.66;51.15;;
37163;Laerm;23057;48.554;14.454;2023-06-24T03:10:28;49.67;48.68;51.27;;
37163;Laerm;23057;48.554;14.454;2023-06-24T03:12:59;49.69;48.71;51.08;;
37163;Laerm;23057;48.554;14.454;2023-06-24T03:15:29;49.67;48.64;50.96;;
37163;Laerm;23057;48.554;14.454;2023-06-24T03:18:00;49.68;48.60;51.08;;
37163;Laerm;23057;48.554;14.454;2023-06-24T03:20:31;49.71;48.57;51.37;;
37163;Laerm;23057;48.554;14.454;2023-06-24T03:23:09;49.79;48.69;51.11;;
37163;Laerm;23057;48.554;14.454;2023-06-24T03:25:40;49.88;48.67;51.52;;
37163;Laerm;23057;48.554;14.454;2023-06-24T03:28:10;49.91;48.83;51.61;;
37163;Laerm;23057;48.554;14.454;2023-06-24T03:30:41;49.94;48.71;51.38;;
37163;Laerm;23057;48.554;14.454;2023-06-24T03:33:12;50.00;48.80;52.29;;
37163;Laerm;23057;48.554;14.454;2023-06-24T03:35:47;50.10;48.77;52.17;;
37163;Laerm;23057;48.554;14.454;2023-06-24T03:38:18;49.87;48.69;51.17;;
37163;Laerm;23057;48.554;14.454;2023-06-24T03:40:49;50.31;48.70;52.44;;
37163;Laerm;23057;48.554;14.454;2023-06-24T03:43:20;50.01;48.80;52.33;;
37163;Laerm;23057;48.554;14.454;2023-06-24T03:45:50;50.40;48.88;52.55;;
37163;Laerm;23057;48.554;14.454;2023-06-24T03:48:22;50.08;48.78;52.40;;
37163;Laerm;23057;48.554;14.454;2023-06-24T03:50:53;50.85;48.88;52.71;;
37163;Laerm;23057;48.554;14.454;2023-06-24T03:53:24;50.36;48.84;53.05;;
37163;Laerm;23057;48.554;14.454;2023-06-24T03:55:54;50.96;48.99;53.07;;
37163;Laerm;23057;48.554;14.454;2023-06-24T03:58:25;50.62;48.58;52.84;;
37163;Laerm;23057;48.554;14.454;2023-06-24T04:00:59;51.04;48.88;52.57;;
37163;Laerm;23057;48.554;14.454;2023-06-24T04:03:30;50.80;48.63;53.13;;
37163;Laerm;23057;48.554;14.454;2023-06-24T04:06:02;50.19;48.48;52.62;;
37163;Laerm;23057;48.554;14.454;2023-06-24T04:08:33;50.58;48.58;52.68;;
37163;Laerm;23057;48.554;14.454;2023-06-24T04:11:03;50.19;48.61;52.65;;
37163;Laerm;23057;48.554;14.454;2023-06-24T04:13:34;50.38;48.54;53.09;;
37163;Laerm;23057;48.554;14.454;2023-06-24T04:16:05;50.92;48.87;52.81;;
37163;Laerm;23057;48.554;14.454;2023-06-24T04:18:36;49.90;48.58;52.51;;
37163;Laerm;23057;48.554;14.454;2023-06-24T04:21:10;49.84;48.49;52.83;;
37163;Laerm;23057;48.554;14.454;2023-06-24T04:23:40;49.88;48.76;52.33;;
37163;Laerm;23057;48.554;14.454;2023-06-24T04:26:11;49.77;48.37;53.24;;
37163;Laerm;23057;48.554;14.454;2023-06-24T04:28:42;49.73;48.78;52.15;;
37163;Laerm;23057;48.554;14.454;2023-06-24T04:31:13;49.76;48.70;52.85;;
37163;Laerm;23057;48.554;14.454;2023-06-24T04:33:43;49.76;48.51;52.65;;
37163;Laerm;23057;48.554;14.454;2023-06-24T04:36:14;49.97;48.70;53.11;;
37163;Laerm;23057;48.554;14.454;2023-06-24T04:38:45;49.88;48.58;52.38;;
37163;Laerm;23057;48.554;14.454;2023-06-24T04:41:15;49.76;48.66;51.67;;
37163;Laerm;23057;48.554;14.454;2023-06-24T04:43:46;49.80;48.63;51.53;;
37163;Laerm;23057;48.554;14.454;2023-06-24T04:46:17;49.95;48.74;51.38;;
37163;Laerm;23057;48.554;14.454;2023-06-24T04:48:48;49.85;48.74;51.32;;
37163;Laerm;23057;48.554;14.454;2023-06-24T04:51:18;49.89;48.81;51.04;;
37163;Laerm;23057;48.554;14.454;2023-06-24T04:53:49;49.84;48.66;51.24;;
37163;Laerm;23057;48.554;14.454;2023-06-24T04:56:20;49.73;48.60;51.33;;
37163;Laerm;23057;48.554;14.454;2023-06-24T04:58:50;49.84;48.71;51.39;;
37163;Laerm;23057;48.554;14.454;2023-06-24T05:01:22;49.81;48.36;51.41;;
37163;Laerm;23057;48.554;14.454;2023-06-24T05:03:53;49.76;48.63;51.52;;
37163;Laerm;23057;48.554;14.454;2023-06-24T05:06:23;49.76;48.57;50.77;;
37163;Laerm;23057;48.554;14.454;2023-06-24T05:08:54;49.84;48.63;51.13;;
37163;Laerm;23057;48.554;14.454;2023-06-24T05:11:25;49.78;48.63;50.86;;
37163;Laerm;23057;48.554;14.454;2023-06-24T05:13:56;49.79;48.71;50.96;;
37163;Laerm;23057;48.554;14.454;2023-06-24T05:16:28;49.74;48.55;50.95;;
37163;Laerm;23057;48.554;14.454;2023-06-24T05:18:58;49.70;48.64;51.15;;
37163;Laerm;23057;48.554;14.454;2023-06-24T05:21:29;49.86;48.64;54.01;;
37163;Laerm;23057;48.554;14.454;2023-06-24T05:24:00;49.74;48.61;51.63;;
37163;Laerm;23057;48.554;14.454;2023-06-24T05:26:30;49.73;48.55;51.52;;
37163;Laerm;23057;48.554;14.454;2023-06-24T05:29:01;49.74;48.77;51.33;;
37163;Laerm;23057;48.554;14.454;2023-06-24T05:31:32;49.75;48.57;50.73;;
37163;Laerm;23057;48.554;14.454;2023-06-24T05:34:03;49.76;48.70;51.53;;
37163;Laerm;23057;48.554;14.454;2023-06-24T05:36:34;49.74;48.63;51.05;;
37163;Laerm;23057;48.554;14.454;2023-06-24T05:39:05;49.75;48.63;51.67;;
37163;Laerm;23057;48.554;14.454;2023-06-24T05:41:39;49.76;48.48;50.82;;
37163;Laerm;23057;48.554;14.454;2023-06-24T05:44:09;49.78;48.57;50.85;;
37163;Laerm;23057;48.554;14.454;2023-06-24T05:46:41;49.71;48.46;50.92;;
37163;Laerm;23057;48.554;14.454;2023-06-24T05:49:16;49.81;48.51;51.27;;
37163;Laerm;23057;48.554;14.454;2023-06-24T05:51:48;50.03;48.55;51.44;;
37163;Laerm;23057;48.554;14.454;2023-06-24T05:54:19;50.04;48.70;51.37;;
37163;Laerm;23057;48.554;14.454;2023-06-24T05:56:50;49.68;48.54;50.97;;
37163;Laerm;23057;48.554;14.454;2023-06-24T05:59:21;49.69;48.49;51.22;;
37163;Laerm;23057;48.554;14.454;2023-06-24T06:01:51;49.73;48.42;50.81;;
37163;Laerm;23057;48.554;14.454;2023-06-24T06:04:22;49.70;48.69;50.87;;
37163;Laerm;23057;48.554;14.454;2023-06-24T06:06:53;49.66;48.58;50.64;;
37163;Laerm;23057;48.554;14.454;2023-06-24T06:09:23;49.67;48.57;51.03;;
37163;Laerm;23057;48.554;14.454;2023-06-24T06:11:54;49.68;48.54;50.72;;
37163;Laerm;23057;48.554;14.454;2023-06-24T06:14:25;49.85;48.64;57.20;;
37163;Laerm;23057;48.554;14.454;2023-06-24T06:16:55;49.78;48.60;52.40;;
37163;Laerm;23057;48.554;14.454;2023-06-24T06:19:26;49.79;48.60;52.24;;
37163;Laerm;23057;48.554;14.454;2023-06-24T06:21:57;49.82;48.64;50.85;;
37163;Laerm;23057;48.554;14.454;2023-06-24T06:24:28;49.77;48.48;50.90;;
37163;Laerm;23057;48.554;14.454;2023-06-24T06:26:58;49.70;48.57;50.86;;
37163;Laerm;23057;48.554;14.454;2023-06-24T06:29:29;49.68;48.67;51.09;;
37163;Laerm;23057;48.554;14.454;2023-06-24T06:32:00;49.69;48.55;50.68;;
37163;Laerm;23057;48.554;14.454;2023-06-24T06:34:31;49.68;48.58;51.03;;
37163;Laerm;23057;48.554;14.454;2023-06-24T06:37:02;49.75;48.64;51.56;;
37163;Laerm;23057;48.554;14.454;2023-06-24T06:39:33;49.74;48.63;51.60;;
37163;Laerm;23057;48.554;14.454;2023-06-24T06:42:04;49.83;48.46;51.95;;
37163;Laerm;23057;48.554;14.454;2023-06-24T06:44:35;49.72;48.60;51.21;;
37163;Laerm;23057;48.554;14.454;2023-06-24T06:47:06;49.66;48.60;50.92;;
37163;Laerm;23057;48.554;14.454;2023-06-24T06:49:37;49.72;48.52;52.62;;
37163;Laerm;23057;48.554;14.454;2023-06-24T06:52:08;50.34;48.69;52.91;;
37163;Laerm;23057;48.554;14.454;2023-06-24T06:54:38;49.80;48.61;55.11;;
37163;Laerm;23057;48.554;14.454;2023-06-24T06:57:09;49.73;48.52;50.97;;
37163;Laerm;23057;48.554;14.454;2023-06-24T06:59:40;49.66;48.60;53.57;;
37163;Laerm;23057;48.554;14.454;2023-06-24T07:02:10;49.66;48.18;52.32;;
37163;Laerm;23057;48.554;14.454;2023-06-24T07:04:41;49.64;48.55;50.74;;
37163;Laerm;23057;48.554;14.454;2023-06-24T07:07:12;49.63;48.61;50.81;;
37163;Laerm;23057;48.554;14.454;2023-06-24T07:09:43;49.66;48.46;51.15;;
37163;Laerm;23057;48.554;14.454;2023-06-24T07:12:14;49.67;48.49;50.84;;
37163;Laerm;23057;48.554;14.454;2023-06-24T07:14:44;49.67;48.66;50.76;;
37163;Laerm;23057;48.554;14.454;2023-06-24T07:17:15;49.68;48.64;51.26;;
37163;Laerm;23057;48.554;14.454;2023-06-24T07:19:46;49.67;48.63;51.41;;
37163;Laerm;23057;48.554;14.454;2023-06-24T07:22:17;49.68;48.60;50.76;;
37163;Laerm;23057;48.554;14.454;2023-06-24T07:24:47;49.66;48.63;50.98;;
37163;Laerm;23057;48.554;14.454;2023-06-24T07:27:18;49.65;48.46;51.03;;
37163;Laerm;23057;48.554;14.454;2023-06-24T07:29:49;49.65;48.51;51.44;;
37163;Laerm;23057;48.554;14.454;2023-06-24T07:32:19;49.63;48.34;50.78;;
37163;Laerm;23057;48.554;14.454;2023-06-24T07:34:50;49.61;48.40;50.75;;
37163;Laerm;23057;48.554;14.454;2023-06-24T07:37:21;49.61;48.57;50.71;;
37163;Laerm;23057;48.554;14.454;2023-06-24T07:39:52;49.81;48.52;51.40;;
37163;Laerm;23057;48.554;14.454;2023-06-24T07:42:22;49.71;48.67;51.09;;
37163;Laerm;23057;48.554;14.454;2023-06-24T07:44:53;49.76;48.63;51.82;;
37163;Laerm;23057;48.554;14.454;2023-06-24T07:47:24;49.79;48.66;51.13;;
37163;Laerm;23057;48.554;14.454;2023-06-24T07:49:55;49.66;48.45;50.78;;
37163;Laerm;23057;48.554;14.454;2023-06-24T07:52:25;49.66;48.60;50.79;;
37163;Laerm;23057;48.554;14.454;2023-06-24T07:54:56;49.64;48.51;51.03;;
37163;Laerm;23057;48.554;14.454;2023-06-24T07:57:27;49.61;48.54;51.01;;
37163;Laerm;23057;48.554;14.454;2023-06-24T07:59:58;49.61;48.58;50.88;;
37163;Laerm;23057;48.554;14.454;2023-06-24T08:02:29;49.60;48.57;50.67;;
37163;Laerm;23057;48.554;14.454;2023-06-24T08:04:59;49.61;48.57;53.73;;
37163;Laerm;23057;48.554;14.454;2023-06-24T08:07:30;49.60;48.48;51.54;;
37163;Laerm;23057;48.554;14.454;2023-06-24T08:10:01;49.62;48.40;50.74;;
37163;Laerm;23057;48.554;14.454;2023-06-24T08:12:32;49.60;48.51;50.68;;
37163;Laerm;23057;48.554;14.454;2023-06-24T08:15:03;49.58;48.46;52.88;;
37163;Laerm;23057;48.554;14.454;2023-06-24T08:17:34;49.54;48.52;51.39;;
37163;Laerm;23057;48.554;14.454;2023-06-24T08:20:05;49.57;48.46;51.26;;
37163;Laerm;23057;48.554;14.454;2023-06-24T08:22:36;49.67;48.46;54.01;;
37163;Laerm;23057;48.554;14.454;2023-06-24T08:25:07;49.94;48.66;59.45;;
37163;Laerm;23057;48.554;14.454;2023-06-24T08:27:38;49.72;48.57;58.01;;
37163;Laerm;23057;48.554;14.454;2023-06-24T08:30:09;49.90;48.36;58.30;;
37163;Laerm;23057;48.554;14.454;2023-06-24T08:32:41;49.77;48.58;58.58;;
37163;Laerm;23057;48.554;14.454;2023-06-24T08:35:12;49.78;48.55;58.65;;
37163;Laerm;23057;48.554;14.454;2023-06-24T08:37:43;49.89;48.52;59.67;;
37163;Laerm;23057;48.554;14.454;2023-06-24T08:40:14;49.78;48.49;56.68;;
37163;Laerm;23057;48.554;14.454;2023-06-24T08:42:45;50.08;48.51;55.64;;
37163;Laerm;23057;48.554;14.454;2023-06-24T08:45:15;50.17;48.74;52.52;;
37163;Laerm;23057;48.554;14.454;2023-06-24T08:47:49;49.92;48.49;52.81;;
37163;Laerm;23057;48.554;14.454;2023-06-24T08:50:25;49.94;48.63;56.66;;
37163;Laerm;23057;48.554;14.454;2023-06-24T08:52:59;49.92;48.61;62.88;;
37163;Laerm;23057;48.554;14.454;2023-06-24T08:55:39;49.59;48.57;51.31;;
37163;Laerm;23057;48.554;14.454;2023-06-24T08:58:10;49.57;48.39;51.51;;
37163;Laerm;23057;48.554;14.454;2023-06-24T09:00:42;49.62;48.45;51.55;;
37163;Laerm;23057;48.554;14.454;2023-06-24T09:03:13;49.63;48.54;54.84;;
37163;Laerm;23057;48.554;14.454;2023-06-24T09:05:44;49.76;48.43;53.42;;
37163;Laerm;23057;48.554;14.454;2023-06-24T09:08:15;49.72;48.45;52.65;;
37163;Laerm;23057;48.554;14.454;2023-06-24T09:10:55;49.97;48.55;52.72;;
37163;Laerm;23057;48.554;14.454;2023-06-24T09:13:44;49.91;48.48;53.69;;
37163;Laerm;23057;48.554;14.454;2023-06-24T09:16:15;49.57;48.42;51.51;;
37163;Laerm;23057;48.554;14.454;2023-06-24T09:18:51;49.58;48.29;51.40;;
37163;Laerm;23057;48.554;14.454;2023-06-24T09:21:27;49.58;48.52;51.80;;
37163;Laerm;23057;48.554;14.454;2023-06-24T09:23:58;49.59;48.52;51.50;;
37163;Laerm;23057;48.554;14.454;2023-06-24T09:26:29;49.59;48.43;51.40;;
37163;Laerm;23057;48.554;14.454;2023-06-24T09:29:00;49.54;48.34;50.79;;
37163;Laerm;23057;48.554;14.454;2023-06-24T09:31:31;49.55;48.42;50.52;;
37163;Laerm;23057;48.554;14.454;2023-06-24T09:34:02;49.55;48.48;50.68;;
37163;Laerm;23057;48.554;14.454;2023-06-24T09:36:33;49.55;48.39;50.81;;
37163;Laerm;23057;48.554;14.454;2023-06-24T09:39:07;49.56;48.49;50.72;;
37163;Laerm;23057;48.554;14.454;2023-06-24T09:41:42;49.58;48.51;50.82;;
37163;Laerm;23057;48.554;14.454;2023-06-24T09:44:13;49.58;48.58;51.36;;
37163;Laerm;23057;48.554;14.454;2023-06-24T09:46:45;49.57;48.61;50.75;;
37163;Laerm;23057;48.554;14.454;2023-06-24T09:49:16;49.57;48.46;50.95;;
37163;Laerm;23057;48.554;14.454;2023-06-24T09:51:49;49.59;48.43;50.73;;
37163;Laerm;23057;48.554;14.454;2023-06-24T09:54:21;49.60;48.58;51.65;;
37163;Laerm;23057;48.554;14.454;2023-06-24T09:56:54;49.63;48.54;50.77;;
37163;Laerm;23057;48.554;14.454;2023-06-24T09:59:25;49.61;48.54;50.64;;
37163;Laerm;23057;48.554;14.454;2023-06-24T10:01:58;49.65;48.49;50.77;;
37163;Laerm;23057;48.554;14.454;2023-06-24T10:04:29;49.73;48.55;51.02;;
37163;Laerm;23057;48.554;14.454;2023-06-24T10:07:01;49.82;48.69;50.95;;
37163;Laerm;23057;48.554;14.454;2023-06-24T10:09:32;49.83;48.46;51.24;;
37163;Laerm;23057;48.554;14.454;2023-06-24T10:12:04;49.63;48.52;51.00;;
37163;Laerm;23057;48.554;14.454;2023-06-24T10:14:35;49.63;48.55;50.87;;
37163;Laerm;23057;48.554;14.454;2023-06-24T10:17:06;49.60;48.51;50.70;;
37163;Laerm;23057;48.554;14.454;2023-06-24T10:19:41;49.63;48.58;50.90;;
37163;Laerm;23057;48.554;14.454;2023-06-24T10:22:12;49.64;48.46;50.92;;
37163;Laerm;23057;48.554;14.454;2023-06-24T10:24:46;49.66;48.70;50.88;;
37163;Laerm;23057;48.554;14.454;2023-06-24T10:27:20;49.66;48.52;52.87;;
37163;Laerm;23057;48.554;14.454;2023-06-24T10:29:54;49.63;48.63;50.90;;
37163;Laerm;23057;48.554;14.454;2023-06-24T10:32:40;49.63;48.54;50.96;;
37163;Laerm;23057;48.554;14.454;2023-06-24T10:35:27;49.61;48.28;51.04;;
37163;Laerm;23057;48.554;14.454;2023-06-24T10:38:00;49.64;48.60;50.75;;
37163;Laerm;23057;48.554;14.454;2023-06-24T10:40:40;49.61;48.51;50.94;;
37163;Laerm;23057;48.554;14.454;2023-06-24T10:45:57;49.60;48.52;50.71;;
37163;Laerm;23057;48.554;14.454;2023-06-24T10:48:28;49.62;48.61;51.13;;
37163;Laerm;23057;48.554;14.454;2023-06-24T10:50:59;49.66;48.52;51.08;;
37163;Laerm;23057;48.554;14.454;2023-06-24T10:53:30;49.63;48.49;50.62;;
37163;Laerm;23057;48.554;14.454;2023-06-24T10:56:01;49.59;48.29;50.54;;
37163;Laerm;23057;48.554;14.454;2023-06-24T10:58:32;49.59;48.42;51.44;;
37163;Laerm;23057;48.554;14.454;2023-06-24T11:01:08;49.66;48.37;50.76;;
37163;Laerm;23057;48.554;14.454;2023-06-24T11:03:39;49.62;48.45;50.85;;
37163;Laerm;23057;48.554;14.454;2023-06-24T11:06:11;49.65;48.21;52.77;;
37163;Laerm;23057;48.554;14.454;2023-06-24T11:08:45;49.59;48.48;51.44;;
37163;Laerm;23057;48.554;14.454;2023-06-24T11:11:20;49.59;48.54;50.82;;
37163;Laerm;23057;48.554;14.454;2023-06-24T11:13:52;49.59;48.51;51.28;;
37163;Laerm;23057;48.554;14.454;2023-06-24T11:16:24;49.57;48.40;50.99;;
37163;Laerm;23057;48.554;14.454;2023-06-24T11:18:55;49.57;48.40;51.47;;
37163;Laerm;23057;48.554;14.454;2023-06-24T11:21:30;49.56;48.58;50.85;;
37163;Laerm;23057;48.554;14.454;2023-06-24T11:24:05;49.55;48.40;51.19;;
37163;Laerm;23057;48.554;14.454;2023-06-24T11:26:36;49.55;48.37;50.81;;
37163;Laerm;23057;48.554;14.454;2023-06-24T11:29:11;49.56;48.46;51.48;;
37163;Laerm;23057;48.554;14.454;2023-06-24T11:31:41;49.79;48.54;51.19;;
37163;Laerm;23057;48.554;14.454;2023-06-24T11:34:12;49.60;48.49;51.37;;
37163;Laerm;23057;48.554;14.454;2023-06-24T11:36:44;49.60;48.51;51.81;;
37163;Laerm;23057;48.554;14.454;2023-06-24T11:39:23;49.66;48.43;51.60;;
37163;Laerm;23057;48.554;14.454;2023-06-24T11:41:57;49.64;48.51;51.61;;
37163;Laerm;23057;48.554;14.454;2023-06-24T11:44:31;49.57;48.55;51.44;;
37163;Laerm;23057;48.554;14.454;2023-06-24T11:47:06;49.58;48.13;51.07;;
37163;Laerm;23057;48.554;14.454;2023-06-24T11:49:55;49.55;48.52;51.00;;
37163;Laerm;23057;48.554;14.454;2023-06-24T11:52:46;49.55;48.51;50.97;;
37163;Laerm;23057;48.554;14.454;2023-06-24T11:55:23;49.54;48.43;50.80;;
37163;Laerm;23057;48.554;14.454;2023-06-24T11:58:03;49.54;48.23;50.58;;
37163;Laerm;23057;48.554;14.454;2023-06-24T12:00:39;49.55;48.51;51.65;;
37163;Laerm;23057;48.554;14.454;2023-06-24T12:03:15;49.52;48.58;51.08;;
37163;Laerm;23057;48.554;14.454;2023-06-24T12:05:47;49.51;48.31;50.51;;
37163;Laerm;23057;48.554;14.454;2023-06-24T12:08:18;49.52;48.36;50.71;;
37163;Laerm;23057;48.554;14.454;2023-06-24T12:10:49;49.49;48.51;50.59;;
37163;Laerm;23057;48.554;14.454;2023-06-24T12:13:19;49.61;48.39;52.20;;
37163;Laerm;23057;48.554;14.454;2023-06-24T12:15:50;49.49;48.49;50.77;;
37163;Laerm;23057;48.554;14.454;2023-06-24T12:18:21;49.49;48.52;51.33;;
37163;Laerm;23057;48.554;14.454;2023-06-24T12:20:51;49.48;48.38;50.64;;
37163;Laerm;23057;48.554;14.454;2023-06-24T12:23:22;49.47;48.02;50.81;;
37163;Laerm;23057;48.554;14.454;2023-06-24T12:25:53;49.48;48.36;50.53;;
37163;Laerm;23057;48.554;14.454;2023-06-24T12:28:24;49.54;48.28;52.48;;
37163;Laerm;23057;48.554;14.454;2023-06-24T12:30:54;49.47;48.40;50.83;;
37163;Laerm;23057;48.554;14.454;2023-06-24T12:33:25;49.54;48.20;50.98;;
37163;Laerm;23057;48.554;14.454;2023-06-24T12:35:56;49.82;48.49;51.72;;
37163;Laerm;23057;48.554;14.454;2023-06-24T12:38:27;49.74;48.66;51.52;;
37163;Laerm;23057;48.554;14.454;2023-06-24T12:40:57;49.53;48.08;51.25;;
37163;Laerm;23057;48.554;14.454;2023-06-24T12:43:28;49.55;48.40;51.77;;
37163;Laerm;23057;48.554;14.454;2023-06-24T12:45:59;49.55;48.37;50.85;;
37163;Laerm;23057;48.554;14.454;2023-06-24T12:48:30;49.61;48.51;51.90;;
37163;Laerm;23057;48.554;14.454;2023-06-24T12:51:00;49.94;48.52;51.96;;
37163;Laerm;23057;48.554;14.454;2023-06-24T12:53:31;49.98;48.91;51.05;;
37163;Laerm;23057;48.554;14.454;2023-06-24T12:56:02;49.68;48.39;51.63;;
37163;Laerm;23057;48.554;14.454;2023-06-24T12:58:33;49.61;48.43;51.30;;
37163;Laerm;23057;48.554;14.454;2023-06-24T13:01:03;49.64;48.48;52.52;;
37163;Laerm;23057;48.554;14.454;2023-06-24T13:03:34;49.64;48.54;50.81;;
37163;Laerm;23057;48.554;14.454;2023-06-24T13:06:05;49.63;48.55;50.69;;
37163;Laerm;23057;48.554;14.454;2023-06-24T13:08:36;49.64;48.48;51.66;;
37163;Laerm;23057;48.554;14.454;2023-06-24T13:11:07;49.62;48.63;50.96;;
37163;Laerm;23057;48.554;14.454;2023-06-24T13:13:37;49.62;48.49;51.57;;
37163;Laerm;23057;48.554;14.454;2023-06-24T13:16:08;49.61;48.28;52.28;;
37163;Laerm;23057;48.554;14.454;2023-06-24T13:18:39;49.62;48.25;51.84;;
37163;Laerm;23057;48.554;14.454;2023-06-24T13:21:09;49.66;48.52;52.38;;
37163;Laerm;23057;48.554;14.454;2023-06-24T13:23:40;49.70;48.67;51.84;;
37163;Laerm;23057;48.554;14.454;2023-06-24T13:26:12;50.48;48.66;52.83;;
37163;Laerm;23057;48.554;14.454;2023-06-24T13:28:43;51.75;49.21;54.02;;
37163;Laerm;23057;48.554;14.454;2023-06-24T13:31:14;51.68;48.87;53.91;;
37163;Laerm;23057;48.554;14.454;2023-06-24T13:33:45;51.39;49.07;54.83;;
37163;Laerm;23057;48.554;14.454;2023-06-24T13:36:45;51.38;48.94;53.44;;
37163;Laerm;23057;48.554;14.454;2023-06-24T13:39:17;50.88;48.81;54.28;;
37163;Laerm;23057;48.554;14.454;2023-06-24T13:41:49;50.02;48.70;53.87;;
37163;Laerm;23057;48.554;14.454;2023-06-24T13:44:20;49.73;48.36;52.82;;
37163;Laerm;23057;48.554;14.454;2023-06-24T13:46:51;49.67;48.58;53.57;;
37163;Laerm;23057;48.554;14.454;2023-06-24T13:49:23;49.70;48.54;52.94;;
37163;Laerm;23057;48.554;14.454;2023-06-24T13:51:54;49.81;48.71;53.86;;
37163;Laerm;23057;48.554;14.454;2023-06-24T13:54:25;49.78;48.40;53.60;;
37163;Laerm;23057;48.554;14.454;2023-06-24T13:56:58;50.12;48.54;54.13;;
37163;Laerm;23057;48.554;14.454;2023-06-24T13:59:28;49.74;48.39;53.86;;
37163;Laerm;23057;48.554;14.454;2023-06-24T14:01:59;49.51;48.15;51.23;;
37163;Laerm;23057;48.554;14.454;2023-06-24T14:04:30;49.55;48.42;57.17;;
37163;Laerm;23057;48.554;14.454;2023-06-24T14:07:01;49.60;48.26;53.75;;